Time;durP1;ratioP1;P1;durP2;ratioP2;P2;SDS_P1;SDS_P2;PMS_P1;PMS_P2;Temp;Humidity;BMP_temperature;BMP_pressure;BME280_temperature;BME280_humidity;BME280_pressure;Samples;Min_cycle;Max_cycle;Signal;HPM_P1;HPM_P2
2022/12/09 00:01:47;;;;;;;10.00;2.88;;;;;;;;;;4999616;28;20196;-76
2022/12/09 00:04:13;;;;;;;19.17;2.70;;;;;;;;;;5002260;28;20025;-75
2022/12/09 00:06:39;;;;;;;12.00;2.60;;;;;;;;;;5001687;28;20041;-74
2022/12/09 00:09:06;;;;;;;15.18;2.83;;;;;;;;;;5002223;28;20068;-74
2022/12/09 00:11:32;;;;;;;13.63;2.80;;;;;;;;;;5003610;28;20482;-74
2022/12/09 00:13:59;;;;;;;11.70;3.35;;;;;;;;;;4994730;28;20123;-74
2022/12/09 00:16:25;;;;;;;12.18;2.55;;;;;;;;;;5001437;28;20428;-74
2022/12/09 00:18:52;;;;;;;13.80;3.35;;;;;;;;;;5000768;28;20026;-75
2022/12/09 00:21:20;;;;;;;17.10;2.60;;;;;;;;;;4998929;28;20115;-75
2022/12/09 00:23:46;;;;;;;16.17;2.78;;;;;;;;;;4993310;28;20152;-75
2022/12/09 00:26:13;;;;;;;14.75;2.90;;;;;;;;;;4994724;28;20026;-75
2022/12/09 00:28:39;;;;;;;14.23;2.60;;;;;;;;;;5001695;28;20608;-74
2022/12/09 00:31:06;;;;;;;15.32;2.67;;;;;;;;;;4996782;28;20134;-74
2022/12/09 00:33:34;;;;;;;12.98;3.00;;;;;;;;;;4997784;28;20015;-74
2022/12/09 00:36:08;;;;;;;13.07;3.53;;;;;;;;;;5002622;28;20112;-75
2022/12/09 00:38:34;;;;;;;12.23;2.60;;;;;;;;;;5001571;28;20025;-75
2022/12/09 00:41:00;;;;;;;15.52;2.78;;;;;;;;;;5002043;28;20113;-74
2022/12/09 00:43:26;;;;;;;19.95;2.97;;;;;;;;;;5000720;28;20054;-74
2022/12/09 00:45:53;;;;;;;12.63;2.83;;;;;;;;;;4999680;28;20494;-74
2022/12/09 00:48:19;;;;;;;20.80;2.67;;;;;;;;;;5004095;28;20045;-74
2022/12/09 00:50:46;;;;;;;9.60;3.00;;;;;;;;;;5004897;28;20270;-74
2022/12/09 00:53:12;;;;;;;11.98;2.78;;;;;;;;;;4999110;28;20018;-75
2022/12/09 00:55:38;;;;;;;14.35;2.42;;;;;;;;;;5001659;28;20413;-74
2022/12/09 00:58:04;;;;;;;12.15;2.65;;;;;;;;;;4998608;28;20510;-74
2022/12/09 01:00:31;;;;;;;18.52;4.25;;;;;;;;;;5004122;28;20601;-74
2022/12/09 01:02:57;;;;;;;13.57;2.40;;;;;;;;;;5005777;28;20036;-73
2022/12/09 01:05:23;;;;;;;12.10;2.10;;;;;;;;;;5005645;28;20017;-74
2022/12/09 01:07:50;;;;;;;12.93;3.13;;;;;;;;;;5003835;28;20032;-74
2022/12/09 01:10:16;;;;;;;9.20;2.53;;;;;;;;;;5005588;28;20046;-74
2022/12/09 01:12:42;;;;;;;18.15;3.28;;;;;;;;;;5005391;28;20553;-74
2022/12/09 01:15:09;;;;;;;14.43;3.15;;;;;;;;;;5005127;28;20030;-74
2022/12/09 01:17:38;;;;;;;13.60;2.72;;;;;;;;;;5003453;28;20397;-75
2022/12/09 01:20:05;;;;;;;9.00;2.63;;;;;;;;;;5005333;28;20386;-75
2022/12/09 01:22:31;;;;;;;16.48;2.17;;;;;;;;;;5004187;28;20029;-74
2022/12/09 01:24:58;;;;;;;13.25;2.42;;;;;;;;;;4958100;28;1401208;-74
2022/12/09 01:27:24;;;;;;;13.15;3.65;;;;;;;;;;5007377;28;20033;-75
2022/12/09 01:29:50;;;;;;;10.00;2.70;;;;;;;;;;5004333;28;20036;-75
2022/12/09 01:32:16;;;;;;;8.75;2.42;;;;;;;;;;5006750;28;20034;-75
2022/12/09 01:34:43;;;;;;;18.42;2.85;;;;;;;;;;5006833;28;20113;-75
2022/12/09 01:37:09;;;;;;;10.38;2.35;;;;;;;;;;5005240;28;20032;-75
2022/12/09 01:39:35;;;;;;;9.93;3.53;;;;;;;;;;5006000;28;20036;-75
2022/12/09 01:42:02;;;;;;;5.93;2.70;;;;;;;;;;5002426;28;20038;-75
2022/12/09 01:44:30;;;;;;;6.88;2.30;;;;;;;;;;5004703;28;20026;-75
2022/12/09 01:46:58;;;;;;;12.77;2.13;;;;;;;;;;5000160;28;20835;-74
2022/12/09 01:49:46;;;;;;;13.80;2.42;;;;;;;;;;5006922;28;20038;-75
2022/12/09 01:52:18;;;;;;;6.25;2.10;;;;;;;;;;5003068;28;20072;-74
2022/12/09 01:54:45;;;;;;;8.10;1.92;;;;;;;;;;5003678;28;20022;-76
2022/12/09 01:57:11;;;;;;;12.70;1.48;;;;;;;;;;5005773;28;20566;-75
2022/12/09 01:59:38;;;;;;;11.50;2.45;;;;;;;;;;5006527;28;20030;-74
2022/12/09 02:02:05;;;;;;;14.80;2.38;;;;;;;;;;5002668;28;20022;-74
2022/12/09 02:04:33;;;;;;;6.63;1.90;;;;;;;;;;5005142;28;20029;-74
2022/12/09 02:07:00;;;;;;;7.20;2.10;;;;;;;;;;5006257;28;20026;-75
2022/12/09 02:09:27;;;;;;;7.10;2.25;;;;;;;;;;5000542;28;20478;-74
2022/12/09 02:12:05;;;;;;;11.82;2.42;;;;;;;;;;5005777;28;20072;-74
2022/12/09 02:14:35;;;;;;;10.80;2.25;;;;;;;;;;5000232;28;20026;-74
2022/12/09 02:17:20;;;;;;;9.23;2.45;;;;;;;;;;5005262;28;20033;-75
2022/12/09 02:19:46;;;;;;;11.55;2.20;;;;;;;;;;5002906;28;20034;-75
2022/12/09 02:22:14;;;;;;;9.82;2.40;;;;;;;;;;5004448;28;20116;-74
2022/12/09 02:24:42;;;;;;;16.00;2.45;;;;;;;;;;5002897;28;20049;-74
2022/12/09 02:27:08;;;;;;;10.75;2.13;;;;;;;;;;5004421;28;20030;-75
2022/12/09 02:30:02;;;;;;;16.67;2.63;;;;;;;;;;5005800;28;20044;-75
2022/12/09 02:32:47;;;;;;;11.38;3.00;;;;;;;;;;5004587;28;20036;-75
2022/12/09 02:35:40;;;;;;;15.70;2.53;;;;;;;;;;4998855;28;20079;-74
2022/12/09 02:38:10;;;;;;;12.68;2.90;;;;;;;;;;5002607;28;20103;-74
2022/12/09 02:40:45;;;;;;;9.15;2.58;;;;;;;;;;5003956;28;20064;-76
2022/12/09 02:43:13;;;;;;;10.80;3.28;;;;;;;;;;5002527;28;20419;-75
2022/12/09 02:45:40;;;;;;;10.43;1.92;;;;;;;;;;4997997;28;20022;-76
2022/12/09 02:48:07;;;;;;;6.75;1.85;;;;;;;;;;5003239;28;20029;-75
2022/12/09 02:50:35;;;;;;;15.43;2.85;;;;;;;;;;5003061;28;20045;-76
2022/12/09 02:53:04;;;;;;;17.33;3.00;;;;;;;;;;5000025;28;20022;-75
2022/12/09 02:55:31;;;;;;;10.63;3.00;;;;;;;;;;5000365;28;20083;-75
2022/12/09 02:57:59;;;;;;;12.90;2.78;;;;;;;;;;5002433;28;20172;-74
2022/12/09 03:00:26;;;;;;;11.85;3.03;;;;;;;;;;5002357;28;20382;-74
2022/12/09 03:02:56;;;;;;;7.47;2.13;;;;;;;;;;5001555;28;20025;-76
2022/12/09 03:05:25;;;;;;;10.68;2.67;;;;;;;;;;5001165;28;20129;-75
2022/12/09 03:08:10;;;;;;;11.98;2.20;;;;;;;;;;5000557;28;20105;-75
2022/12/09 03:10:44;;;;;;;11.77;2.78;;;;;;;;;;5000159;28;20194;-75
2022/12/09 03:13:14;;;;;;;14.82;3.10;;;;;;;;;;5000133;28;20441;-75
2022/12/09 03:15:42;;;;;;;10.52;2.58;;;;;;;;;;5001547;28;20030;-75
2022/12/09 03:18:11;;;;;;;11.57;2.70;;;;;;;;;;5002402;28;20018;-74
2022/12/09 03:20:39;;;;;;;11.50;2.53;;;;;;;;;;5000726;28;20032;-75
2022/12/09 03:23:06;;;;;;;14.98;2.83;;;;;;;;;;4999619;28;20088;-73
2022/12/09 03:25:38;;;;;;;11.35;2.45;;;;;;;;;;5000627;28;20057;-75
2022/12/09 03:28:06;;;;;;;10.52;2.35;;;;;;;;;;4999316;28;20026;-76
2022/12/09 03:30:35;;;;;;;14.80;2.53;;;;;;;;;;4994794;28;20037;-74
2022/12/09 03:33:02;;;;;;;8.10;2.85;;;;;;;;;;5001845;28;20494;-74
2022/12/09 03:35:32;;;;;;;14.40;3.17;;;;;;;;;;5000255;28;20033;-75
2022/12/09 03:37:58;;;;;;;11.63;2.50;;;;;;;;;;5000535;28;20040;-74
2022/12/09 03:40:26;;;;;;;6.95;2.03;;;;;;;;;;5002153;28;20030;-75
2022/12/09 03:42:55;;;;;;;9.07;2.30;;;;;;;;;;4999808;28;20033;-74
2022/12/09 03:45:23;;;;;;;7.47;1.92;;;;;;;;;;4994915;28;20034;-75
2022/12/09 03:47:49;;;;;;;12.00;3.00;;;;;;;;;;5002065;28;20025;-75
2022/12/09 03:50:16;;;;;;;13.25;3.03;;;;;;;;;;5000084;28;20332;-75
2022/12/09 03:52:47;;;;;;;11.65;2.33;;;;;;;;;;5000830;28;20033;-74
2022/12/09 03:55:19;;;;;;;6.20;2.40;;;;;;;;;;5001321;28;20029;-74
2022/12/09 03:57:47;;;;;;;6.25;1.95;;;;;;;;;;4997203;28;20036;-74
2022/12/09 04:00:13;;;;;;;8.25;2.25;;;;;;;;;;5000368;28;20108;-75
2022/12/09 04:02:40;;;;;;;10.23;2.22;;;;;;;;;;4999700;28;20022;-74
2022/12/09 04:05:06;;;;;;;11.85;2.97;;;;;;;;;;5001523;28;20040;-74
2022/12/09 04:07:32;;;;;;;10.20;2.92;;;;;;;;;;5001575;28;20018;-75
2022/12/09 04:09:58;;;;;;;5.85;1.90;;;;;;;;;;5001183;28;20038;-74
2022/12/09 04:12:25;;;;;;;6.60;2.00;;;;;;;;;;4999230;28;20807;-74
2022/12/09 04:14:51;;;;;;;12.23;2.10;;;;;;;;;;5002492;28;20540;-75
2022/12/09 04:17:17;;;;;;;6.80;2.10;;;;;;;;;;5002007;28;20398;-74
2022/12/09 04:19:43;;;;;;;9.18;2.33;;;;;;;;;;5001067;28;20664;-75
2022/12/09 04:22:09;;;;;;;7.18;1.75;;;;;;;;;;5000270;28;20665;-74
2022/12/09 04:24:35;;;;;;;7.50;1.98;;;;;;;;;;5000089;28;20431;-74
2022/12/09 04:27:02;;;;;;;9.60;1.80;;;;;;;;;;5002214;28;20069;-75
2022/12/09 04:29:28;;;;;;;9.82;1.80;;;;;;;;;;5001189;28;20068;-75
2022/12/09 04:31:54;;;;;;;11.70;1.95;;;;;;;;;;5001613;28;20033;-74
2022/12/09 04:34:20;;;;;;;8.20;2.47;;;;;;;;;;5000791;28;20486;-75
2022/12/09 04:36:47;;;;;;;9.35;1.90;;;;;;;;;;5000833;28;20034;-75
2022/12/09 04:39:13;;;;;;;10.75;2.22;;;;;;;;;;5000923;28;20026;-77
2022/12/09 04:41:40;;;;;;;10.90;1.73;;;;;;;;;;5001737;28;20029;-76
2022/12/09 04:44:06;;;;;;;8.02;1.40;;;;;;;;;;5000739;28;20034;-75
2022/12/09 04:46:32;;;;;;;5.28;1.50;;;;;;;;;;4990871;28;20101;-75
2022/12/09 04:48:59;;;;;;;15.15;2.17;;;;;;;;;;5000622;28;20041;-76
2022/12/09 04:51:25;;;;;;;7.28;1.75;;;;;;;;;;5001163;28;20703;-76
2022/12/09 04:53:51;;;;;;;7.60;2.55;;;;;;;;;;5014612;28;20674;-75
2022/12/09 04:56:18;;;;;;;8.18;1.85;;;;;;;;;;5000111;28;20022;-75
2022/12/09 04:58:45;;;;;;;9.73;1.92;;;;;;;;;;5001396;28;20025;-75
2022/12/09 05:01:18;;;;;;;11.27;1.73;;;;;;;;;;4998435;28;20041;-74
2022/12/09 05:03:48;;;;;;;12.27;1.92;;;;;;;;;;5001156;28;20088;-74
2022/12/09 05:06:15;;;;;;;11.35;2.03;;;;;;;;;;5001858;28;20080;-75
2022/12/09 05:08:41;;;;;;;13.52;1.98;;;;;;;;;;5000306;28;20036;-74
2022/12/09 05:11:07;;;;;;;8.63;1.60;;;;;;;;;;5001275;28;20040;-76
2022/12/09 05:13:34;;;;;;;5.65;1.90;;;;;;;;;;5000556;28;20405;-76
2022/12/09 05:16:05;;;;;;;15.57;1.83;;;;;;;;;;5000814;28;20471;-74
2022/12/09 05:18:31;;;;;;;6.15;1.65;;;;;;;;;;4994948;28;20030;-75
2022/12/09 05:20:57;;;;;;;9.75;1.80;;;;;;;;;;4999829;28;20030;-75
2022/12/09 05:23:23;;;;;;;12.50;2.45;;;;;;;;;;4998218;28;20045;-74
2022/12/09 05:25:50;;;;;;;13.82;1.85;;;;;;;;;;5001467;28;20026;-75
2022/12/09 05:28:16;;;;;;;9.20;1.90;;;;;;;;;;4999120;28;20041;-75
2022/12/09 05:30:42;;;;;;;8.13;2.35;;;;;;;;;;5001256;28;20108;-75
2022/12/09 05:33:08;;;;;;;10.65;2.00;;;;;;;;;;5004091;28;20022;-76
2022/12/09 05:35:34;;;;;;;8.55;1.95;;;;;;;;;;4998944;28;20080;-75
2022/12/09 05:38:00;;;;;;;11.40;2.28;;;;;;;;;;5003152;28;20022;-74
2022/12/09 05:40:27;;;;;;;9.10;2.20;;;;;;;;;;5004004;28;20554;-74
2022/12/09 05:42:53;;;;;;;10.82;2.53;;;;;;;;;;5003868;28;20397;-74
2022/12/09 05:45:19;;;;;;;8.52;1.80;;;;;;;;;;5003464;28;20533;-75
2022/12/09 05:47:45;;;;;;;12.98;2.58;;;;;;;;;;5004427;28;20022;-75
2022/12/09 05:50:11;;;;;;;6.78;2.00;;;;;;;;;;4997787;28;20044;-76
2022/12/09 05:52:37;;;;;;;8.77;1.40;;;;;;;;;;5004305;28;20017;-75
2022/12/09 05:55:05;;;;;;;7.85;2.28;;;;;;;;;;5003472;28;20068;-74
2022/12/09 05:57:32;;;;;;;11.40;2.00;;;;;;;;;;5003093;28;20026;-74
2022/12/09 05:59:59;;;;;;;11.25;2.20;;;;;;;;;;5002086;28;20029;-76
2022/12/09 06:02:25;;;;;;;11.57;2.00;;;;;;;;;;5003045;28;20026;-74
2022/12/09 06:04:51;;;;;;;6.00;1.63;;;;;;;;;;5003780;28;20040;-75
2022/12/09 06:07:17;;;;;;;10.32;2.85;;;;;;;;;;5003100;28;20026;-74
2022/12/09 06:09:44;;;;;;;10.93;1.80;;;;;;;;;;5002165;28;20084;-74
2022/12/09 06:12:10;;;;;;;12.13;2.50;;;;;;;;;;5003835;28;20067;-75
2022/12/09 06:14:37;;;;;;;11.77;2.03;;;;;;;;;;5003113;28;20510;-74
2022/12/09 06:17:03;;;;;;;6.53;1.80;;;;;;;;;;5004196;28;20038;-75
2022/12/09 06:19:29;;;;;;;15.63;2.10;;;;;;;;;;5001813;28;20030;-74
2022/12/09 06:21:55;;;;;;;8.65;2.00;;;;;;;;;;5003857;28;20022;-74
2022/12/09 06:24:21;;;;;;;4.25;1.83;;;;;;;;;;5001687;28;20042;-76
2022/12/09 06:26:48;;;;;;;11.07;2.22;;;;;;;;;;5002718;28;20034;-74
2022/12/09 06:29:14;;;;;;;11.80;1.90;;;;;;;;;;5003551;28;20032;-75
2022/12/09 06:31:40;;;;;;;10.27;1.88;;;;;;;;;;5003819;28;20554;-75
2022/12/09 06:34:06;;;;;;;8.88;2.33;;;;;;;;;;5000451;28;20045;-75
2022/12/09 06:36:32;;;;;;;7.53;1.77;;;;;;;;;;5002266;28;20458;-74
2022/12/09 06:38:59;;;;;;;6.75;1.75;;;;;;;;;;4997550;28;20140;-74
2022/12/09 06:41:25;;;;;;;17.02;2.28;;;;;;;;;;5002997;28;20580;-75
2022/12/09 06:43:51;;;;;;;8.02;1.73;;;;;;;;;;5000191;28;20029;-74
2022/12/09 06:46:24;;;;;;;7.82;1.60;;;;;;;;;;5003299;28;20016;-74
2022/12/09 06:48:51;;;;;;;15.43;2.00;;;;;;;;;;4993519;28;20054;-74
2022/12/09 06:51:18;;;;;;;12.50;1.95;;;;;;;;;;5001084;28;20042;-74
2022/12/09 06:53:44;;;;;;;4.40;1.50;;;;;;;;;;5000207;28;20053;-76
2022/12/09 06:56:11;;;;;;;10.52;2.00;;;;;;;;;;5003779;28;20025;-75
2022/12/09 06:58:38;;;;;;;5.82;1.55;;;;;;;;;;5002578;28;20089;-74
2022/12/09 07:01:06;;;;;;;14.55;1.98;;;;;;;;;;5002029;28;20030;-75
2022/12/09 07:03:32;;;;;;;7.40;1.98;;;;;;;;;;4999983;28;20022;-74
2022/12/09 07:05:58;;;;;;;8.38;1.95;;;;;;;;;;4999861;28;20083;-75
2022/12/09 07:08:24;;;;;;;6.40;1.80;;;;;;;;;;5001906;28;20018;-74
2022/12/09 07:10:50;;;;;;;4.93;2.25;;;;;;;;;;5001744;28;20589;-75
2022/12/09 07:13:16;;;;;;;13.50;1.88;;;;;;;;;;5001570;28;20396;-75
2022/12/09 07:15:43;;;;;;;10.65;1.90;;;;;;;;;;5017419;28;20498;-74
2022/12/09 07:18:09;;;;;;;9.20;1.80;;;;;;;;;;5003190;28;20466;-74
2022/12/09 07:20:35;;;;;;;10.93;1.80;;;;;;;;;;5001449;28;20057;-74
2022/12/09 07:23:01;;;;;;;6.57;1.73;;;;;;;;;;5002913;28;20026;-77
2022/12/09 07:25:27;;;;;;;6.75;1.98;;;;;;;;;;5002363;28;20030;-75
2022/12/09 07:27:54;;;;;;;4.07;2.00;;;;;;;;;;5003138;28;20036;-77
2022/12/09 07:30:20;;;;;;;6.03;1.80;;;;;;;;;;5001742;28;20490;-75
2022/12/09 07:32:46;;;;;;;5.78;1.40;;;;;;;;;;4994260;28;20025;-77
2022/12/09 07:35:12;;;;;;;11.57;2.08;;;;;;;;;;5002660;28;20018;-74
2022/12/09 07:37:38;;;;;;;11.30;2.10;;;;;;;;;;5002587;28;20494;-75
2022/12/09 07:40:05;;;;;;;11.18;2.13;;;;;;;;;;5001920;28;20037;-77
2022/12/09 07:42:31;;;;;;;8.82;2.95;;;;;;;;;;5000941;28;20205;-76
2022/12/09 07:44:57;;;;;;;7.88;1.63;;;;;;;;;;5002770;28;20022;-75
2022/12/09 07:47:24;;;;;;;6.38;1.90;;;;;;;;;;5002060;28;20022;-75
2022/12/09 07:49:50;;;;;;;7.22;2.40;;;;;;;;;;5002448;28;20034;-78
2022/12/09 07:52:16;;;;;;;8.93;2.47;;;;;;;;;;4998566;28;20068;-75
2022/12/09 07:54:42;;;;;;;7.05;1.98;;;;;;;;;;5001023;28;20030;-77
2022/12/09 07:57:09;;;;;;;3.70;1.70;;;;;;;;;;5000559;28;20651;-75
2022/12/09 07:59:35;;;;;;;5.45;1.70;;;;;;;;;;5000024;28;20045;-77
2022/12/09 08:02:02;;;;;;;8.43;1.75;;;;;;;;;;4998817;28;20018;-75
2022/12/09 08:04:29;;;;;;;10.00;2.30;;;;;;;;;;5002341;28;20485;-76
2022/12/09 08:06:55;;;;;;;8.63;2.03;;;;;;;;;;4997797;28;20668;-75
2022/12/09 08:09:21;;;;;;;8.77;1.70;;;;;;;;;;5002133;28;20022;-76
2022/12/09 08:11:47;;;;;;;10.18;1.95;;;;;;;;;;4992916;28;20068;-76
2022/12/09 08:14:17;;;;;;;7.00;1.45;;;;;;;;;;5000172;28;20028;-77
2022/12/09 08:16:43;;;;;;;6.70;1.75;;;;;;;;;;5001711;28;20028;-76
2022/12/09 08:19:09;;;;;;;8.18;1.70;;;;;;;;;;5001523;28;20544;-77
2022/12/09 08:21:35;;;;;;;8.88;1.80;;;;;;;;;;5001711;28;20029;-76
2022/12/09 08:24:04;;;;;;;8.73;1.77;;;;;;;;;;5000149;28;20050;-76
2022/12/09 08:26:31;;;;;;;7.05;1.60;;;;;;;;;;5001710;28;20044;-74
2022/12/09 08:28:57;;;;;;;8.43;1.77;;;;;;;;;;4997589;28;20030;-75
2022/12/09 08:31:24;;;;;;;5.63;2.10;;;;;;;;;;5002177;28;20710;-75
2022/12/09 08:33:51;;;;;;;7.18;1.92;;;;;;;;;;5001616;28;20057;-75
2022/12/09 08:36:18;;;;;;;9.35;1.73;;;;;;;;;;5000515;28;20036;-75
2022/12/09 08:38:45;;;;;;;7.63;1.60;;;;;;;;;;5001889;28;20112;-74
2022/12/09 08:41:34;;;;;;;4.63;1.60;;;;;;;;;;5001728;28;20579;-74
2022/12/09 08:44:01;;;;;;;13.70;2.10;;;;;;;;;;4995533;28;20057;-75
2022/12/09 08:46:27;;;;;;;6.15;1.95;;;;;;;;;;5002158;28;20046;-74
2022/12/09 08:48:54;;;;;;;7.68;1.95;;;;;;;;;;4998219;28;20049;-76
2022/12/09 08:51:20;;;;;;;10.25;1.90;;;;;;;;;;4995120;28;20026;-76
2022/12/09 08:53:46;;;;;;;10.95;2.10;;;;;;;;;;4998980;28;20014;-76
2022/12/09 08:56:13;;;;;;;9.00;2.08;;;;;;;;;;4997310;28;20025;-76
2022/12/09 08:58:40;;;;;;;8.25;1.55;;;;;;;;;;5000673;28;20025;-76
2022/12/09 09:01:07;;;;;;;7.88;2.10;;;;;;;;;;4999841;28;20120;-75
2022/12/09 09:03:33;;;;;;;8.68;2.13;;;;;;;;;;4999279;28;20026;-75
2022/12/09 09:06:03;;;;;;;10.75;1.88;;;;;;;;;;4992710;28;20057;-74
2022/12/09 09:08:30;;;;;;;6.53;1.65;;;;;;;;;;5000937;28;20061;-73
2022/12/09 09:10:56;;;;;;;11.20;2.67;;;;;;;;;;5003117;28;20026;-73
2022/12/09 09:13:23;;;;;;;4.80;2.15;;;;;;;;;;5003515;28;20107;-73
2022/12/09 09:15:49;;;;;;;9.93;2.40;;;;;;;;;;5001722;28;20038;-73
2022/12/09 09:18:15;;;;;;;8.13;1.70;;;;;;;;;;4997852;28;20406;-73
2022/12/09 09:20:46;;;;;;;13.63;1.90;;;;;;;;;;5002965;28;20138;-72
2022/12/09 09:23:13;;;;;;;9.30;2.47;;;;;;;;;;5003647;28;20119;-73
2022/12/09 09:25:42;;;;;;;10.73;2.88;;;;;;;;;;5002793;28;20653;-73
2022/12/09 09:28:09;;;;;;;7.78;2.20;;;;;;;;;;5001911;28;20030;-73
2022/12/09 09:30:36;;;;;;;9.93;2.33;;;;;;;;;;5000629;28;20037;-77
2022/12/09 09:33:03;;;;;;;11.15;2.20;;;;;;;;;;4999515;28;20022;-74
2022/12/09 09:35:29;;;;;;;5.65;1.90;;;;;;;;;;5003142;28;20049;-72
2022/12/09 09:37:55;;;;;;;5.38;1.90;;;;;;;;;;5002635;28;20026;-73
2022/12/09 09:40:22;;;;;;;10.32;2.13;;;;;;;;;;5002078;28;20057;-74
2022/12/09 09:42:50;;;;;;;8.27;1.70;;;;;;;;;;5001571;28;20018;-74
2022/12/09 09:45:18;;;;;;;7.57;1.98;;;;;;;;;;5004026;28;20399;-72
2022/12/09 09:47:53;;;;;;;10.82;1.73;;;;;;;;;;5003376;28;20022;-74
2022/12/09 09:50:26;;;;;;;8.25;1.50;;;;;;;;;;5000772;28;20034;-73
2022/12/09 09:52:53;;;;;;;11.25;1.85;;;;;;;;;;5002131;28;20018;-81
2022/12/09 09:55:27;;;;;;;8.35;2.30;;;;;;;;;;5003512;28;20030;-73
2022/12/09 09:58:12;;;;;;;8.15;1.80;;;;;;;;;;5004138;28;20057;-73
2022/12/09 10:00:52;;;;;;;11.20;2.00;;;;;;;;;;4996040;28;20048;-72
2022/12/09 10:03:24;;;;;;;10.50;1.98;;;;;;;;;;5000071;28;20025;-72
2022/12/09 10:05:54;;;;;;;5.47;1.83;;;;;;;;;;5003566;28;20053;-72
2022/12/09 10:08:40;;;;;;;9.45;2.35;;;;;;;;;;5003548;28;20014;-73
2022/12/09 10:11:25;;;;;;;8.00;2.25;;;;;;;;;;5003371;28;20038;-72
2022/12/09 10:13:55;;;;;;;11.07;2.40;;;;;;;;;;5002829;28;20024;-73
2022/12/09 10:16:47;;;;;;;7.95;2.40;;;;;;;;;;4999709;28;20032;-72
2022/12/09 10:19:19;;;;;;;7.00;1.90;;;;;;;;;;5001673;28;20030;-73
2022/12/09 10:21:46;;;;;;;9.88;2.53;;;;;;;;;;5002095;28;20485;-74
2022/12/09 10:24:15;;;;;;;8.68;2.47;;;;;;;;;;5000803;28;20042;-72
2022/12/09 10:26:42;;;;;;;15.45;2.80;;;;;;;;;;5002803;28;20057;-72
2022/12/09 10:29:16;;;;;;;9.93;2.45;;;;;;;;;;5002742;28;20030;-72
2022/12/09 10:31:42;;;;;;;8.48;2.17;;;;;;;;;;5003309;28;20500;-72
2022/12/09 10:34:10;;;;;;;8.77;1.75;;;;;;;;;;5002672;28;20030;-73
2022/12/09 10:36:37;;;;;;;9.35;1.95;;;;;;;;;;5002018;28;20379;-72
2022/12/09 10:39:04;;;;;;;9.50;2.35;;;;;;;;;;5002878;28;20108;-72
2022/12/09 10:44:20;;;;;;;8.43;1.52;;;;;;;;;;4995999;28;20049;-73
2022/12/09 10:46:46;;;;;;;7.25;1.63;;;;;;;;;;4998517;28;20561;-73
2022/12/09 10:49:20;;;;;;;7.45;1.40;;;;;;;;;;5002966;28;20166;-72
2022/12/09 10:51:50;;;;;;;7.20;1.30;;;;;;;;;;5000514;28;20041;-73
2022/12/09 10:54:16;;;;;;;11.05;1.77;;;;;;;;;;4995437;28;20014;-74
2022/12/09 10:57:01;;;;;;;8.98;1.85;;;;;;;;;;5001483;28;20018;-72
2022/12/09 10:59:28;;;;;;;11.23;1.70;;;;;;;;;;5002697;28;20084;-72
2022/12/09 11:02:18;;;;;;;7.53;1.90;;;;;;;;;;5000838;28;20061;-73
2022/12/09 11:04:44;;;;;;;7.50;2.08;;;;;;;;;;4992443;28;20038;-73
2022/12/09 11:07:21;;;;;;;7.95;1.95;;;;;;;;;;4997338;28;20034;-72
2022/12/09 11:10:03;;;;;;;10.70;2.10;;;;;;;;;;5001727;28;20038;-73
2022/12/09 11:12:33;;;;;;;9.32;2.10;;;;;;;;;;5001617;28;20076;-73
2022/12/09 11:15:00;;;;;;;11.77;2.17;;;;;;;;;;5002004;28;20406;-73
2022/12/09 11:17:30;;;;;;;9.85;2.00;;;;;;;;;;4999015;28;20053;-73
2022/12/09 11:20:06;;;;;;;8.85;2.88;;;;;;;;;;5002359;28;20026;-73
2022/12/09 11:22:39;;;;;;;5.53;2.05;;;;;;;;;;5001444;28;20024;-73
2022/12/09 11:25:15;;;;;;;9.07;2.03;;;;;;;;;;4993776;28;20132;-72
2022/12/09 11:27:41;;;;;;;7.78;1.80;;;;;;;;;;5000993;28;20026;-73
2022/12/09 11:30:18;;;;;;;8.15;1.85;;;;;;;;;;5001166;28;20022;-72
2022/12/09 11:33:03;;;;;;;9.57;1.75;;;;;;;;;;4994929;28;20056;-72
2022/12/09 11:35:50;;;;;;;8.50;2.10;;;;;;;;;;5000062;28;20025;-72
2022/12/09 11:38:22;;;;;;;9.25;2.10;;;;;;;;;;5000159;28;20049;-72
2022/12/09 11:41:07;;;;;;;10.30;1.88;;;;;;;;;;5001611;28;20022;-73
2022/12/09 11:43:39;;;;;;;8.93;1.60;;;;;;;;;;4997995;28;20049;-73
2022/12/09 11:46:14;;;;;;;10.00;1.75;;;;;;;;;;4998300;28;20949;-72
2022/12/09 11:48:47;;;;;;;10.63;2.15;;;;;;;;;;5000914;28;20021;-72
2022/12/09 11:51:21;;;;;;;8.52;2.28;;;;;;;;;;5000681;28;20033;-72
2022/12/09 11:53:47;;;;;;;8.68;1.63;;;;;;;;;;5000715;28;20018;-72
2022/12/09 11:56:19;;;;;;;10.50;2.50;;;;;;;;;;5001451;28;20036;-72
2022/12/09 11:58:57;;;;;;;10.77;2.30;;;;;;;;;;5001916;28;20071;-72
2022/12/09 12:01:41;;;;;;;16.30;2.28;;;;;;;;;;4994463;28;20030;-72
2022/12/09 12:04:09;;;;;;;10.95;2.17;;;;;;;;;;4997992;28;20213;-72
2022/12/09 12:06:41;;;;;;;9.68;2.35;;;;;;;;;;4999709;28;20427;-72
2022/12/09 12:09:13;;;;;;;17.58;3.35;;;;;;;;;;4998147;28;20030;-72
2022/12/09 12:12:01;;;;;;;17.67;2.90;;;;;;;;;;5000253;28;20033;-72
2022/12/09 12:14:29;;;;;;;10.02;3.00;;;;;;;;;;5001033;28;20034;-72
2022/12/09 12:17:13;;;;;;;12.63;2.67;;;;;;;;;;5001743;28;20036;-72
2022/12/09 12:19:40;;;;;;;13.05;2.70;;;;;;;;;;5001384;28;20390;-72
2022/12/09 12:22:19;;;;;;;14.13;3.15;;;;;;;;;;4999717;28;20748;-72
2022/12/09 12:24:45;;;;;;;17.92;3.80;;;;;;;;;;5000921;28;20133;-72
2022/12/09 12:27:31;;;;;;;11.23;2.47;;;;;;;;;;5000864;28;20017;-73
2022/12/09 12:30:00;;;;;;;20.23;3.20;;;;;;;;;;4995925;28;20038;-73
2022/12/09 12:32:41;;;;;;;14.05;3.55;;;;;;;;;;4996020;28;20026;-73
2022/12/09 12:35:20;;;;;;;16.23;2.95;;;;;;;;;;5001539;28;20030;-72
2022/12/09 12:37:52;;;;;;;14.48;3.80;;;;;;;;;;4999661;28;20550;-76
2022/12/09 12:40:18;;;;;;;9.95;3.22;;;;;;;;;;4999654;28;20037;-72
2022/12/09 12:48:32;;;;;;;7.75;3.00;;;;;;;;;;5004997;28;20049;-72
2022/12/09 12:51:11;;;;;;;10.55;3.75;;;;;;;;;;5003933;28;20041;-72
2022/12/09 12:53:52;;;;;;;12.63;3.08;;;;;;;;;;5002865;28;20033;-73
2022/12/09 12:56:32;;;;;;;9.23;3.27;;;;;;;;;;5003350;28;20065;-72
2022/12/09 12:59:09;;;;;;;12.30;3.58;;;;;;;;;;5000729;28;20050;-73
2022/12/09 13:01:51;;;;;;;14.43;3.13;;;;;;;;;;4999495;28;20029;-72
2022/12/09 13:04:22;;;;;;;12.65;3.08;;;;;;;;;;5002736;28;20038;-72
2022/12/09 13:06:48;;;;;;;;;;;;;;;;;;5004545;28;20037;-74
2022/12/09 13:09:22;;;;;;;10.65;3.33;;;;;;;;;;5002449;28;20021;-72
2022/12/09 13:11:56;;;;;;;8.52;3.40;;;;;;;;;;5006717;28;20038;-72
2022/12/09 13:14:25;;;;;;;15.15;3.40;;;;;;;;;;5002400;28;20079;-72
2022/12/09 13:16:52;;;;;;;14.40;3.67;;;;;;;;;;5005275;28;20071;-71
2022/12/09 13:19:21;;;;;;;14.95;3.55;;;;;;;;;;5003459;28;20233;-73
2022/12/09 13:21:47;;;;;;;13.52;3.42;;;;;;;;;;5004879;28;20048;-72
2022/12/09 13:24:32;;;;;;;11.20;3.67;;;;;;;;;;5001899;28;20457;-72
2022/12/09 13:27:09;;;;;;;16.33;3.00;;;;;;;;;;5002304;28;20457;-71
2022/12/09 13:29:53;;;;;;;13.45;2.75;;;;;;;;;;5004500;28;20025;-72
2022/12/09 13:32:26;;;;;;;11.57;3.15;;;;;;;;;;5001554;28;20043;-72
2022/12/09 13:34:54;;;;;;;10.70;3.35;;;;;;;;;;5003801;28;20073;-73
2022/12/09 13:37:39;;;;;;;15.52;3.30;;;;;;;;;;5003830;28;20037;-73
2022/12/09 13:40:26;;;;;;;22.08;3.97;;;;;;;;;;5003165;28;20378;-71
2022/12/09 13:43:12;;;;;;;14.52;2.85;;;;;;;;;;5002746;28;20063;-73
2022/12/09 13:45:44;;;;;;;17.23;2.90;;;;;;;;;;5003163;28;20025;-72
2022/12/09 13:48:10;;;;;;;12.55;2.80;;;;;;;;;;5002588;28;20026;-72
2022/12/09 13:50:50;;;;;;;11.13;3.45;;;;;;;;;;4999150;28;20092;-73
2022/12/09 13:53:19;;;;;;;17.95;3.88;;;;;;;;;;5001794;28;20101;-72
2022/12/09 13:55:55;;;;;;;16.83;3.33;;;;;;;;;;5000443;28;20047;-72
2022/12/09 13:58:24;;;;;;;20.45;3.55;;;;;;;;;;5002528;28;20117;-72
2022/12/09 14:01:09;;;;;;;20.13;4.25;;;;;;;;;;5003022;28;20382;-72
2022/12/09 14:03:39;;;;;;;22.88;4.82;;;;;;;;;;5001784;28;20029;-74
2022/12/09 14:06:16;;;;;;;15.18;3.20;;;;;;;;;;5002362;28;20037;-72
2022/12/09 14:08:46;;;;;;;24.42;4.03;;;;;;;;;;4997518;28;20490;-72
2022/12/09 14:11:32;;;;;;;15.80;3.75;;;;;;;;;;5000114;28;20049;-72
2022/12/09 14:14:25;;;;;;;22.20;3.47;;;;;;;;;;4991495;28;20054;-72
2022/12/09 14:16:51;;;;;;;16.30;3.95;;;;;;;;;;4977190;28;20156;-72
2022/12/09 14:19:23;;;;;;;27.75;4.50;;;;;;;;;;5002052;28;20121;-74
2022/12/09 14:22:11;;;;;;;31.65;4.53;;;;;;;;;;5001946;28;20695;-73
2022/12/09 14:24:38;;;;;;;24.08;3.60;;;;;;;;;;5002039;28;20053;-72
2022/12/09 14:27:04;;;;;;;28.38;4.15;;;;;;;;;;5003617;28;20554;-72
2022/12/09 14:29:51;;;;;;;30.83;4.78;;;;;;;;;;5002973;28;20807;-72
2022/12/09 14:32:21;;;;;;;23.52;4.93;;;;;;;;;;5003557;28;20076;-72
2022/12/09 14:34:49;;;;;;;24.83;5.03;;;;;;;;;;5001327;28;20045;-71
2022/12/09 14:37:36;;;;;;;19.52;4.40;;;;;;;;;;5003043;28;20557;-72
2022/12/09 14:40:17;;;;;;;36.53;5.60;;;;;;;;;;5001908;28;20034;-73
2022/12/09 14:43:02;;;;;;;29.88;5.82;;;;;;;;;;5001942;28;20337;-71
2022/12/09 14:45:28;;;;;;;29.25;6.35;;;;;;;;;;5002553;28;20107;-72
2022/12/09 14:47:55;;;;;;;29.48;5.57;;;;;;;;;;5001641;28;20063;-71
2022/12/09 14:50:23;;;;;;;31.30;5.32;;;;;;;;;;5002759;28;20025;-72
2022/12/09 14:52:57;;;;;;;34.25;6.18;;;;;;;;;;5002117;28;20087;-71
2022/12/09 14:55:25;;;;;;;28.02;5.43;;;;;;;;;;5001987;28;20034;-71
2022/12/09 14:57:52;;;;;;;27.48;6.70;;;;;;;;;;4999391;28;20087;-72
2022/12/09 15:00:27;;;;;;;26.95;5.93;;;;;;;;;;5002668;28;20037;-72